createdAt,value
2024-01-04T00:00:40.808Z,97879.13
2024-01-04T00:06:03.930Z,97879.21
2024-01-04T00:11:07.826Z,97874.98
2024-01-04T00:16:12.212Z,97867.45
2024-01-04T00:21:15.489Z,97868.77
2024-01-04T00:26:18.318Z,97864.05
2024-01-04T00:31:21.165Z,97867.23
2024-01-04T00:36:23.902Z,97870.98
2024-01-04T00:41:26.875Z,97866.70
2024-01-04T00:46:29.575Z,97877.61
2024-01-04T00:51:32.297Z,97871.15
2024-01-04T00:56:37.076Z,97862.54
2024-01-04T01:01:40.341Z,97858.48
2024-01-04T01:06:43.229Z,97855.44
2024-01-04T01:11:46.388Z,97856.70
2024-01-04T01:16:49.060Z,97855.65
2024-01-04T01:21:51.841Z,97856.33
2024-01-04T01:26:54.630Z,97855.58
2024-01-04T01:31:57.484Z,97850.73
2024-01-04T01:37:00.576Z,97848.98
2024-01-04T01:42:03.547Z,97843.98
2024-01-04T01:47:06.573Z,97838.73
2024-01-04T01:52:09.345Z,97838.14
2024-01-04T01:57:12.824Z,97833.53
2024-01-04T02:02:16.958Z,97839.28
2024-01-04T02:07:20.079Z,97837.93
2024-01-04T02:12:22.741Z,97828.63
2024-01-04T02:17:27.190Z,97829.15
2024-01-04T02:22:31.443Z,97833.98
2024-01-04T02:27:34.199Z,97829.73
2024-01-04T02:32:37.084Z,97822.84
2024-01-04T02:37:39.978Z,97815.17
2024-01-04T02:42:42.695Z,97810.88
2024-01-04T02:47:45.552Z,97810.87
2024-01-04T02:52:48.431Z,97805.09
2024-01-04T02:57:51.947Z,97798.48
2024-01-04T03:02:54.668Z,97797.23
2024-01-04T03:07:57.433Z,97807.17
2024-01-04T03:13:00.143Z,97799.70
2024-01-04T03:18:03.091Z,97792.90
2024-01-04T03:23:05.912Z,97778.86
2024-01-04T03:28:08.672Z,97771.36
2024-01-04T03:33:11.522Z,97772.61
2024-01-04T03:38:14.912Z,97769.30
2024-01-04T03:43:17.701Z,97757.79
2024-01-04T03:48:20.570Z,97754.04
2024-01-04T03:53:23.418Z,97760.11
2024-01-04T03:58:27.320Z,97759.64
2024-01-04T04:03:30.691Z,97751.70
2024-01-04T04:08:33.572Z,97754.05
2024-01-04T04:13:36.409Z,97756.89
2024-01-04T04:18:39.369Z,97760.61
2024-01-04T04:23:43.391Z,97760.17
2024-01-04T04:28:46.190Z,97758.30
2024-01-04T04:33:50.143Z,97748.79
2024-01-04T04:38:53.305Z,97748.89
2024-01-04T04:43:56.156Z,97745.91
2024-01-04T04:48:59.893Z,97745.86
2024-01-04T04:54:04.568Z,97746.56
2024-01-04T04:59:07.466Z,97752.83
2024-01-04T05:04:10.602Z,97751.74
2024-01-04T05:09:13.497Z,97748.83
2024-01-04T05:14:16.346Z,97756.80
2024-01-04T05:19:19.167Z,97765.23
2024-01-04T05:24:22.082Z,97763.70
2024-01-04T05:29:27.074Z,97766.04
2024-01-04T05:34:33.503Z,97765.06
2024-01-04T05:39:36.829Z,97771.34
2024-01-04T05:44:39.610Z,97767.54
2024-01-04T05:49:42.615Z,97763.70
2024-01-04T05:54:45.439Z,97761.15
2024-01-04T05:59:48.209Z,97770.80
2024-01-04T06:04:50.938Z,97774.06
2024-01-04T06:09:53.877Z,97773.59
2024-01-04T06:14:57.161Z,97765.38
2024-01-04T06:19:59.976Z,97768.35
2024-01-04T06:25:02.745Z,97767.64
2024-01-04T06:30:07.496Z,97772.79
2024-01-04T06:35:10.377Z,97773.86
2024-01-04T06:40:13.218Z,97783.17
2024-01-04T06:45:16.134Z,97783.61
2024-01-04T06:50:19.744Z,97776.20
2024-01-04T06:55:22.891Z,97776.54
2024-01-04T07:00:26.618Z,97771.63
2024-01-04T07:05:29.610Z,97763.39
2024-01-04T07:10:32.540Z,97757.38
2024-01-04T07:15:35.372Z,97753.91
2024-01-04T07:20:42.541Z,97755.78
2024-01-04T07:25:45.501Z,97757.27
2024-01-04T07:30:48.382Z,97760.35
2024-01-04T07:35:51.219Z,97753.63
2024-01-04T07:40:53.987Z,97750.88
2024-01-04T07:45:56.784Z,97753.31
2024-01-04T07:51:00.778Z,97752.83
2024-01-04T07:56:04.220Z,97748.60
2024-01-04T08:01:08.003Z,97748.11
2024-01-04T08:06:10.886Z,97746.27
2024-01-04T08:11:13.784Z,97753.91
2024-01-04T08:16:16.584Z,97755.02
2024-01-04T08:21:20.367Z,97754.58
2024-01-04T08:26:23.247Z,97762.36
2024-01-04T08:31:27.120Z,97761.19
2024-01-04T08:36:30.150Z,97758.68
2024-01-04T08:41:33.050Z,97762.75
2024-01-04T08:46:39.282Z,97763.67
2024-01-04T08:51:42.668Z,97759.46
2024-01-04T08:56:45.434Z,97764.66
2024-01-04T09:01:48.268Z,97760.86
2024-01-04T09:06:51.027Z,97769.50
2024-01-04T09:11:54.543Z,97774.54
2024-01-04T09:16:57.574Z,97773.49
2024-01-04T09:22:00.377Z,97777.38
2024-01-04T09:27:04.399Z,97783.86
2024-01-04T09:32:07.607Z,97779.19
2024-01-04T09:37:10.590Z,97774.14
2024-01-04T09:42:16.424Z,97781.27
2024-01-04T09:47:23.802Z,97777.10
2024-01-04T09:52:27.269Z,97773.45
2024-01-04T09:57:30.105Z,97776.14
2024-01-04T10:02:33.823Z,97774.83
2024-01-04T10:07:44.346Z,97771.22
2024-01-04T10:12:48.756Z,97776.66
2024-01-04T10:17:53.583Z,97776.27
2024-01-04T10:22:59.867Z,97776.35
2024-01-04T10:28:03.273Z,97784.83
2024-01-04T10:33:06.718Z,97784.29
2024-01-04T10:38:10.050Z,97786.74
2024-01-04T10:43:20.463Z,97790.02
2024-01-04T10:48:23.373Z,97786.23
2024-01-04T10:53:29.242Z,97777.98
2024-01-04T10:58:34.586Z,97779.98
2024-01-04T11:03:38.626Z,97778.49
2024-01-04T11:08:44.217Z,97774.23
2024-01-04T11:13:47.380Z,97781.06
2024-01-04T11:19:09.442Z,97778.34
2024-01-04T11:24:50.668Z,97776.83
2024-01-04T11:29:54.226Z,97770.44
2024-01-04T11:34:57.688Z,97774.30
2024-01-04T11:40:08.474Z,97775.30
2024-01-04T11:45:15.825Z,97774.45
2024-01-04T11:50:21.133Z,97777.00
2024-01-04T11:55:26.790Z,97775.48
2024-01-04T12:00:34.465Z,97773.55
2024-01-04T12:05:37.445Z,97768.85
2024-01-04T12:10:41.400Z,97769.17
2024-01-04T12:15:44.139Z,97784.20
2024-01-04T12:20:47.061Z,97777.98
2024-01-04T12:25:50.115Z,97782.48
2024-01-04T12:30:53.144Z,97793.37
2024-01-04T12:36:01.364Z,97789.19
2024-01-04T12:41:04.550Z,97783.51
2024-01-04T12:46:08.747Z,97786.36
2024-01-04T12:51:18.601Z,97786.63
2024-01-04T12:56:21.964Z,97781.98
2024-01-04T13:01:24.785Z,97785.40
2024-01-04T13:06:29.464Z,97788.45
2024-01-04T13:11:32.559Z,97785.95
2024-01-04T13:16:35.327Z,97786.27
2024-01-04T13:21:38.438Z,97790.62
2024-01-04T13:26:44.693Z,97790.89
2024-01-04T13:31:48.512Z,97798.50
2024-01-04T13:36:51.306Z,97797.78
2024-01-04T13:41:55.689Z,97784.36
2024-01-04T13:46:58.758Z,97788.19
2024-01-04T13:52:04.490Z,97793.51
2024-01-04T13:57:09.156Z,97791.12
2024-01-04T14:02:12.196Z,97793.98
2024-01-04T14:07:15.011Z,97797.52
2024-01-04T14:12:17.826Z,97811.79
2024-01-04T14:17:20.633Z,97805.83
2024-01-04T14:22:23.430Z,97800.59
2024-01-04T14:27:27.532Z,97805.13
2024-01-04T14:32:33.577Z,97806.48
2024-01-04T14:37:40.176Z,97816.56
2024-01-04T14:42:43.679Z,97826.66
2024-01-04T14:47:47.897Z,97839.51
2024-01-04T14:52:50.820Z,97862.05
2024-01-04T14:57:56.831Z,97868.17
2024-01-04T15:02:59.707Z,97869.59
2024-01-04T15:08:03.957Z,97874.63
2024-01-04T15:13:07.105Z,97886.11
2024-01-04T15:18:10.005Z,97894.90
2024-01-04T15:23:13.792Z,97905.31
2024-01-04T15:28:16.623Z,97918.83
2024-01-04T15:33:19.530Z,97922.98
2024-01-04T15:38:22.504Z,97934.11
2024-01-04T15:43:25.308Z,97950.61
2024-01-04T15:48:29.087Z,97962.49
2024-01-04T15:53:31.977Z,97975.66
2024-01-04T15:58:34.815Z,97992.00
2024-01-04T16:03:38.703Z,98009.66
2024-01-04T16:08:41.587Z,98012.38
2024-01-04T16:13:45.953Z,98020.17
2024-01-04T16:18:48.809Z,98032.69
2024-01-04T16:23:51.798Z,98037.61
2024-01-04T16:28:55.093Z,98051.77
2024-01-04T16:33:58.140Z,98064.27
2024-01-04T16:39:01.501Z,98073.87
2024-01-04T16:44:04.569Z,98088.98
2024-01-04T16:49:07.554Z,98100.84
2024-01-04T16:54:11.458Z,98118.04
2024-01-04T16:59:14.334Z,98131.52
2024-01-04T17:04:17.468Z,98147.60
2024-01-04T17:09:22.380Z,98167.66
2024-01-04T17:14:25.378Z,98186.42
2024-01-04T17:19:28.731Z,98199.16
2024-01-04T17:24:32.240Z,98211.30
2024-01-04T17:29:35.074Z,98217.92
2024-01-04T17:34:37.908Z,98233.93
2024-01-04T17:39:40.801Z,98251.31
2024-01-04T17:44:43.883Z,98264.73
2024-01-04T17:49:48.631Z,98276.00
2024-01-04T17:54:52.842Z,98284.63
2024-01-04T17:59:55.918Z,98299.23
2024-01-04T18:04:58.711Z,98310.70
2024-01-04T18:10:01.739Z,98331.09
2024-01-04T18:15:05.484Z,98343.29
2024-01-04T18:20:09.273Z,98362.84
2024-01-04T18:25:12.092Z,98366.36
2024-01-04T18:30:15.139Z,98370.90
2024-01-04T18:35:18.192Z,98380.57
2024-01-04T18:40:21.158Z,98396.41
2024-01-04T18:45:23.895Z,98413.39
2024-01-04T18:50:26.770Z,98430.21
2024-01-04T18:55:29.842Z,98440.34
2024-01-04T19:00:32.853Z,98454.19
2024-01-04T19:05:36.135Z,98463.27
2024-01-04T19:10:39.028Z,98478.65
2024-01-04T19:15:49.541Z,98498.13
2024-01-04T19:21:00.146Z,98510.08
2024-01-04T19:26:03.755Z,98511.45
2024-01-04T19:31:07.469Z,98521.33
2024-01-04T19:36:10.325Z,98537.73
2024-01-04T19:41:13.373Z,98554.27
2024-01-04T19:46:16.347Z,98571.50
2024-01-04T19:51:20.111Z,98590.46
2024-01-04T19:56:25.549Z,98609.22
2024-01-04T20:01:28.327Z,98621.33
2024-01-04T20:06:31.809Z,98634.98
2024-01-04T20:11:35.560Z,98641.98
2024-01-04T20:16:40.601Z,98653.41
2024-01-04T20:21:44.885Z,98658.18
2024-01-04T20:26:47.698Z,98672.70
2024-01-04T20:31:50.472Z,98681.41
2024-01-04T20:36:53.470Z,98689.26
2024-01-04T20:41:56.175Z,98693.17
2024-01-04T20:47:02.016Z,98705.30
2024-01-04T20:52:05.093Z,98714.16
2024-01-04T20:57:07.868Z,98728.68
2024-01-04T21:02:10.829Z,98739.61
2024-01-04T21:07:13.585Z,98753.27
2024-01-04T21:12:16.630Z,98767.63
2024-01-04T21:17:19.591Z,98778.73
2024-01-04T21:22:22.271Z,98792.55
2024-01-04T21:27:27.313Z,98809.15
2024-01-04T21:32:30.198Z,98821.64
2024-01-04T21:37:32.948Z,98829.85
2024-01-04T21:42:35.719Z,98835.82
2024-01-04T21:47:38.501Z,98841.46
2024-01-04T21:52:41.255Z,98853.77
2024-01-04T21:57:43.973Z,98867.27
2024-01-04T22:02:46.756Z,98870.36
2024-01-04T22:07:49.781Z,98878.91
2024-01-04T22:12:53.157Z,98880.81
2024-01-04T22:17:55.973Z,98877.92
2024-01-04T22:22:58.784Z,98877.75
2024-01-04T22:28:01.627Z,98877.77
2024-01-04T22:33:04.962Z,98885.45
2024-01-04T22:38:07.989Z,98879.14
2024-01-04T22:43:10.692Z,98884.78
2024-01-04T22:48:13.494Z,98889.92
2024-01-04T22:53:16.533Z,98894.20
2024-01-04T22:58:19.336Z,98893.35
2024-01-04T23:03:22.414Z,98905.84
2024-01-04T23:08:25.383Z,98919.17
2024-01-04T23:13:28.072Z,98921.73
2024-01-04T23:18:31.048Z,98930.63
2024-01-04T23:23:34.108Z,98939.17
2024-01-04T23:28:40.444Z,98948.05
2024-01-04T23:33:43.801Z,98963.45
2024-01-04T23:38:46.835Z,98969.27
2024-01-04T23:43:49.544Z,98967.02
2024-01-04T23:48:52.603Z,98972.34
2024-01-04T23:53:55.690Z,98984.66
2024-01-04T23:58:58.565Z,98993.23
